sim
Sign-in with your pilot id or email,
or register
Callsign
Passwort

Schedule Details

Flight Number: OEO2005
Departure: Dresden Airport (EDDC) at 15:10
Arrival: Munich Airport (EDDM) at 16:20

Weather Information
Getting current METAR information for EDDC 220150Z 16009KT CAVOK 12/10 Q1014
Getting current METAR information for EDDM 220150Z 33002KT 3000 1100N R08L/0600N R08R/0800U BCFG NSC 08/08 Q1014 TEMPO 2500

Schedule Frequency

Route Map